Time;durP1;ratioP1;P1;durP2;ratioP2;P2;SDS_P1;SDS_P2;PMS_P1;PMS_P2;Temp;Humidity;BMP_temperature;BMP_pressure;BME280_temperature;BME280_humidity;BME280_pressure;Samples;Min_cycle;Max_cycle;Signal;HPM_P1;HPM_P2
2020/12/24 00:01:10;;;;;;;3.25;1.00;;;;;;;;;;4998204;28;20497;-60
2020/12/24 00:03:35;;;;;;;3.17;1.08;;;;;;;;;;4996030;28;20037;-60
2020/12/24 00:06:01;;;;;;;7.78;1.85;;;;;;;;;;4995612;28;20034;-60
2020/12/24 00:08:26;;;;;;;4.85;1.77;;;;;;;;;;4995670;28;20033;-60
2020/12/24 00:10:51;;;;;;;2.58;1.08;;;;;;;;;;4996133;28;20362;-60
2020/12/24 00:13:17;;;;;;;5.30;1.27;;;;;;;;;;4998020;28;20350;-60
2020/12/24 00:15:43;;;;;;;4.40;1.30;;;;;;;;;;4994640;28;20057;-60
2020/12/24 00:18:09;;;;;;;4.60;1.42;;;;;;;;;;4997103;28;20109;-60
2020/12/24 00:20:35;;;;;;;4.22;1.30;;;;;;;;;;4996437;28;20026;-60
2020/12/24 00:23:01;;;;;;;4.45;1.50;;;;;;;;;;4994920;28;20382;-61
2020/12/24 00:25:26;;;;;;;6.45;1.42;;;;;;;;;;4996956;28;20030;-60
2020/12/24 00:27:52;;;;;;;4.60;1.35;;;;;;;;;;4995940;28;20037;-61
2020/12/24 00:30:17;;;;;;;7.05;2.00;;;;;;;;;;4997469;28;20041;-60
2020/12/24 00:32:43;;;;;;;4.28;1.48;;;;;;;;;;4991353;28;20034;-60
2020/12/24 00:35:08;;;;;;;6.47;1.45;;;;;;;;;;4995756;28;20064;-60
2020/12/24 00:37:34;;;;;;;6.18;1.40;;;;;;;;;;4996410;28;20084;-60
2020/12/24 00:39:59;;;;;;;5.10;1.75;;;;;;;;;;4995463;28;20046;-60
2020/12/24 00:42:24;;;;;;;5.10;1.58;;;;;;;;;;4996444;28;20472;-60
2020/12/24 00:44:50;;;;;;;4.47;1.80;;;;;;;;;;4994374;28;20039;-60
2020/12/24 00:47:15;;;;;;;10.57;1.77;;;;;;;;;;4994663;28;20458;-60
2020/12/24 00:49:41;;;;;;;6.95;1.88;;;;;;;;;;4993395;28;20030;-60
2020/12/24 00:52:06;;;;;;;7.93;1.60;;;;;;;;;;4995282;28;20536;-60
2020/12/24 00:54:31;;;;;;;5.40;1.85;;;;;;;;;;4996051;28;20037;-60
2020/12/24 00:56:58;;;;;;;7.00;1.63;;;;;;;;;;4994970;28;20026;-60
2020/12/24 00:59:23;;;;;;;4.38;1.45;;;;;;;;;;4996364;28;20045;-60
2020/12/24 01:01:48;;;;;;;7.72;1.80;;;;;;;;;;4995174;28;20433;-60
2020/12/24 01:04:14;;;;;;;9.73;1.95;;;;;;;;;;4997024;28;20034;-60
2020/12/24 01:06:39;;;;;;;7.43;1.88;;;;;;;;;;4993345;28;20156;-60
2020/12/24 01:09:05;;;;;;;7.90;1.95;;;;;;;;;;4994345;28;20045;-60
2020/12/24 01:11:31;;;;;;;6.95;1.80;;;;;;;;;;4994847;28;20040;-60
2020/12/24 01:13:56;;;;;;;5.35;1.33;;;;;;;;;;4994121;28;20034;-60
2020/12/24 01:16:22;;;;;;;5.75;1.88;;;;;;;;;;4995251;28;20198;-60
2020/12/24 01:18:47;;;;;;;4.70;1.35;;;;;;;;;;4996048;28;20089;-60
2020/12/24 01:21:13;;;;;;;7.22;1.70;;;;;;;;;;4996620;28;20121;-60
2020/12/24 01:23:38;;;;;;;9.82;1.60;;;;;;;;;;4992640;28;20037;-60
2020/12/24 01:26:07;;;;;;;6.28;1.65;;;;;;;;;;4995254;28;20458;-60
2020/12/24 01:28:32;;;;;;;5.15;1.40;;;;;;;;;;4994019;28;20592;-60
2020/12/24 01:30:57;;;;;;;6.88;2.00;;;;;;;;;;4994219;28;20027;-60
2020/12/24 01:33:25;;;;;;;6.93;1.80;;;;;;;;;;4996111;28;20046;-60
2020/12/24 01:35:50;;;;;;;6.70;1.88;;;;;;;;;;4994421;28;20041;-60
2020/12/24 01:38:16;;;;;;;7.47;1.35;;;;;;;;;;4996602;28;20030;-60
2020/12/24 01:40:41;;;;;;;7.55;1.63;;;;;;;;;;4988876;28;20052;-60
2020/12/24 01:43:06;;;;;;;8.88;1.98;;;;;;;;;;4995237;28;20034;-60
2020/12/24 01:45:33;;;;;;;3.85;1.30;;;;;;;;;;4993627;28;20034;-60
2020/12/24 01:47:58;;;;;;;10.40;2.33;;;;;;;;;;4993793;28;20350;-60
2020/12/24 01:50:24;;;;;;;6.38;2.15;;;;;;;;;;4993579;28;20049;-60
2020/12/24 01:52:50;;;;;;;5.22;1.60;;;;;;;;;;4991958;28;20445;-60
2020/12/24 01:55:15;;;;;;;5.53;2.08;;;;;;;;;;4995562;28;20218;-60
2020/12/24 01:57:40;;;;;;;7.43;1.70;;;;;;;;;;4993123;28;20038;-60
2020/12/24 02:00:10;;;;;;;10.15;2.58;;;;;;;;;;4995247;28;20065;-60
2020/12/24 02:02:35;;;;;;;7.22;1.98;;;;;;;;;;4992700;28;20038;-60
2020/12/24 02:05:02;;;;;;;11.25;2.00;;;;;;;;;;4993956;28;20029;-60
2020/12/24 02:07:27;;;;;;;8.82;1.63;;;;;;;;;;4995020;28;20117;-59
2020/12/24 02:09:53;;;;;;;5.75;2.38;;;;;;;;;;4993197;28;20470;-60
2020/12/24 02:12:19;;;;;;;6.55;1.95;;;;;;;;;;4993032;28;20088;-60
2020/12/24 02:14:45;;;;;;;8.05;1.85;;;;;;;;;;4993294;28;20637;-60
2020/12/24 02:17:10;;;;;;;5.82;1.60;;;;;;;;;;4993421;28;20109;-60
2020/12/24 02:19:40;;;;;;;5.30;1.77;;;;;;;;;;4992816;28;20385;-60
2020/12/24 02:22:05;;;;;;;8.20;2.05;;;;;;;;;;5000294;28;20049;-60
2020/12/24 02:24:31;;;;;;;7.30;2.15;;;;;;;;;;4994215;28;20030;-60
2020/12/24 02:26:56;;;;;;;8.23;1.80;;;;;;;;;;4994022;28;20019;-60
2020/12/24 02:29:22;;;;;;;10.07;2.03;;;;;;;;;;4995526;28;20320;-60
2020/12/24 02:31:48;;;;;;;5.85;1.73;;;;;;;;;;4995481;28;20124;-60
2020/12/24 02:34:14;;;;;;;9.18;2.05;;;;;;;;;;4995710;28;20038;-60
2020/12/24 02:36:39;;;;;;;8.05;2.30;;;;;;;;;;4993391;28;20591;-60
2020/12/24 02:39:05;;;;;;;5.97;2.03;;;;;;;;;;4994100;28;20410;-60
2020/12/24 02:41:30;;;;;;;7.10;2.30;;;;;;;;;;4998607;28;20030;-60
2020/12/24 02:43:55;;;;;;;6.10;1.98;;;;;;;;;;4997141;28;20373;-60
2020/12/24 02:46:21;;;;;;;8.68;1.95;;;;;;;;;;4998879;28;20034;-60
2020/12/24 02:48:46;;;;;;;7.95;2.05;;;;;;;;;;4997530;28;20026;-60
2020/12/24 02:51:13;;;;;;;6.95;2.03;;;;;;;;;;4996772;28;20347;-60
2020/12/24 02:53:38;;;;;;;11.68;2.50;;;;;;;;;;4995434;28;20038;-60
2020/12/24 02:56:04;;;;;;;11.82;2.40;;;;;;;;;;4995886;28;20057;-60
2020/12/24 02:58:29;;;;;;;6.85;1.75;;;;;;;;;;4995839;28;20042;-60
2020/12/24 03:00:54;;;;;;;4.32;1.67;;;;;;;;;;4995391;28;20037;-60
2020/12/24 03:03:20;;;;;;;8.35;1.75;;;;;;;;;;4999065;28;20492;-60
2020/12/24 03:05:46;;;;;;;11.52;1.95;;;;;;;;;;4995981;28;20117;-60
2020/12/24 03:08:12;;;;;;;10.68;2.45;;;;;;;;;;4998257;28;20026;-60
2020/12/24 03:10:37;;;;;;;9.77;2.75;;;;;;;;;;4997532;28;20048;-60
2020/12/24 03:13:02;;;;;;;12.60;2.75;;;;;;;;;;4991367;28;20096;-60
2020/12/24 03:15:28;;;;;;;7.70;1.70;;;;;;;;;;4994516;28;20120;-60
2020/12/24 03:17:53;;;;;;;8.18;2.53;;;;;;;;;;4996906;28;20121;-60
2020/12/24 03:20:18;;;;;;;7.10;1.60;;;;;;;;;;4998839;28;20033;-60
2020/12/24 03:22:44;;;;;;;9.48;2.35;;;;;;;;;;4996610;28;20385;-58
2020/12/24 03:25:11;;;;;;;7.03;1.85;;;;;;;;;;4996880;28;20537;-60
2020/12/24 03:27:36;;;;;;;7.43;1.90;;;;;;;;;;5000954;28;20029;-61
2020/12/24 03:30:02;;;;;;;10.85;1.88;;;;;;;;;;4995519;28;20045;-58
2020/12/24 03:32:27;;;;;;;6.03;1.80;;;;;;;;;;4998171;28;20463;-58
2020/12/24 03:34:53;;;;;;;6.95;2.00;;;;;;;;;;4995258;28;20038;-60
2020/12/24 03:37:18;;;;;;;13.18;3.28;;;;;;;;;;4997147;28;20120;-60
2020/12/24 03:39:43;;;;;;;6.50;2.35;;;;;;;;;;4995770;28;20089;-60
2020/12/24 03:42:09;;;;;;;9.45;2.08;;;;;;;;;;4995450;28;20133;-61
2020/12/24 03:44:35;;;;;;;8.65;2.17;;;;;;;;;;4994589;28;20112;-58
2020/12/24 03:47:01;;;;;;;10.80;2.65;;;;;;;;;;4995129;28;20484;-58
2020/12/24 03:49:26;;;;;;;11.73;2.38;;;;;;;;;;4994607;28;20046;-59
2020/12/24 03:51:52;;;;;;;10.38;2.72;;;;;;;;;;4994003;28;20027;-58
2020/12/24 03:54:17;;;;;;;6.07;1.85;;;;;;;;;;4998247;28;20084;-59
2020/12/24 03:56:42;;;;;;;7.25;2.25;;;;;;;;;;4997319;28;20033;-59
2020/12/24 03:59:08;;;;;;;7.82;1.77;;;;;;;;;;4996861;28;20850;-59
2020/12/24 04:01:33;;;;;;;6.60;1.95;;;;;;;;;;4996893;28;20045;-59
2020/12/24 04:03:58;;;;;;;9.63;1.88;;;;;;;;;;4996719;28;20034;-59
2020/12/24 04:06:24;;;;;;;6.15;1.67;;;;;;;;;;4997798;28;20037;-59
2020/12/24 04:08:49;;;;;;;5.70;1.90;;;;;;;;;;4993289;28;20433;-58
2020/12/24 04:11:14;;;;;;;7.68;1.70;;;;;;;;;;4996268;28;20518;-59
2020/12/24 04:13:40;;;;;;;14.43;2.60;;;;;;;;;;4995702;28;20377;-58
2020/12/24 04:16:05;;;;;;;7.40;1.95;;;;;;;;;;4993919;28;20060;-58
2020/12/24 04:18:31;;;;;;;9.10;1.92;;;;;;;;;;4996789;28;20038;-58
2020/12/24 04:20:59;;;;;;;9.57;1.92;;;;;;;;;;5000507;28;20617;-58
2020/12/24 04:23:24;;;;;;;10.25;2.42;;;;;;;;;;4996105;28;20103;-58
2020/12/24 04:25:50;;;;;;;11.55;2.78;;;;;;;;;;4992208;28;20109;-58
2020/12/24 04:28:15;;;;;;;10.63;1.95;;;;;;;;;;4994835;28;20038;-59
2020/12/24 04:30:44;;;;;;;15.77;2.35;;;;;;;;;;4993215;28;20046;-59
2020/12/24 04:33:13;;;;;;;9.35;2.13;;;;;;;;;;4993010;28;20049;-59
2020/12/24 04:35:38;;;;;;;11.85;2.92;;;;;;;;;;4996070;28;20445;-59
2020/12/24 04:38:05;;;;;;;10.57;2.22;;;;;;;;;;4995417;28;20462;-59
2020/12/24 04:40:31;;;;;;;13.05;2.30;;;;;;;;;;4993509;28;20057;-59
2020/12/24 04:42:57;;;;;;;6.10;2.40;;;;;;;;;;4987405;28;20042;-59
2020/12/24 04:45:25;;;;;;;14.15;2.78;;;;;;;;;;4988889;28;20068;-59
2020/12/24 04:47:55;;;;;;;8.48;2.58;;;;;;;;;;4989665;28;20030;-59
2020/12/24 04:50:21;;;;;;;10.40;3.15;;;;;;;;;;4996676;28;20034;-59
2020/12/24 04:52:47;;;;;;;13.63;2.70;;;;;;;;;;4991504;28;20038;-59
2020/12/24 04:55:12;;;;;;;10.65;2.72;;;;;;;;;;4994136;28;20390;-59
2020/12/24 04:57:38;;;;;;;11.57;2.58;;;;;;;;;;4992396;28;20045;-59
2020/12/24 05:00:04;;;;;;;8.00;2.40;;;;;;;;;;4990352;28;20162;-59
2020/12/24 05:02:29;;;;;;;8.65;2.00;;;;;;;;;;5002857;28;20056;-59
2020/12/24 05:04:55;;;;;;;10.18;2.03;;;;;;;;;;4996162;28;20664;-65
2020/12/24 05:07:20;;;;;;;12.13;2.15;;;;;;;;;;4992641;28;20096;-65
2020/12/24 05:09:50;;;;;;;11.20;2.33;;;;;;;;;;4994495;28;20044;-65
2020/12/24 05:12:31;;;;;;;8.02;1.88;;;;;;;;;;4994614;28;20046;-65
2020/12/24 05:14:57;;;;;;;10.82;2.17;;;;;;;;;;4985943;28;20102;-64
2020/12/24 05:17:23;;;;;;;13.75;2.00;;;;;;;;;;4995670;28;20358;-65
2020/12/24 05:20:04;;;;;;;5.47;2.15;;;;;;;;;;4990516;28;20070;-65
2020/12/24 05:22:30;;;;;;;16.05;3.15;;;;;;;;;;4995954;28;20032;-65
2020/12/24 05:25:10;;;;;;;8.80;2.10;;;;;;;;;;4995123;28;20026;-65
2020/12/24 05:27:36;;;;;;;5.90;2.07;;;;;;;;;;4995661;28;20034;-64
2020/12/24 05:30:02;;;;;;;9.70;2.63;;;;;;;;;;4996719;28;20277;-65
2020/12/24 05:32:29;;;;;;;12.10;3.10;;;;;;;;;;4997880;28;20377;-65
2020/12/24 05:35:02;;;;;;;10.23;4.07;;;;;;;;;;4994894;28;20078;-64
2020/12/24 05:37:28;;;;;;;12.63;5.05;;;;;;;;;;4995629;28;20045;-65
2020/12/24 05:39:53;;;;;;;9.93;2.53;;;;;;;;;;4994882;28;20038;-65
2020/12/24 05:42:18;;;;;;;15.23;3.28;;;;;;;;;;4996803;28;20109;-64
2020/12/24 05:44:44;;;;;;;10.05;3.38;;;;;;;;;;4995936;28;20109;-64
2020/12/24 05:47:09;;;;;;;10.95;3.97;;;;;;;;;;4995316;28;20030;-64
2020/12/24 05:49:35;;;;;;;7.57;2.72;;;;;;;;;;4995151;28;20026;-64
2020/12/24 05:52:02;;;;;;;9.98;3.08;;;;;;;;;;4996313;28;20357;-64
2020/12/24 05:54:29;;;;;;;7.97;1.85;;;;;;;;;;4998314;28;20113;-65
2020/12/24 05:56:56;;;;;;;9.48;1.83;;;;;;;;;;4994257;28;20096;-64
2020/12/24 05:59:24;;;;;;;12.25;2.45;;;;;;;;;;4999224;28;20111;-65
2020/12/24 06:02:00;;;;;;;7.05;2.15;;;;;;;;;;4991448;28;20104;-64
2020/12/24 06:04:43;;;;;;;8.13;2.35;;;;;;;;;;4994463;28;20037;-64
2020/12/24 06:07:09;;;;;;;8.38;2.25;;;;;;;;;;4995808;28;20046;-64
2020/12/24 06:09:39;;;;;;;8.48;2.00;;;;;;;;;;4994981;28;20041;-64
2020/12/24 06:12:26;;;;;;;11.30;2.13;;;;;;;;;;4994594;28;20042;-64
2020/12/24 06:14:59;;;;;;;10.82;3.58;;;;;;;;;;4995130;28;20429;-65
2020/12/24 06:17:26;;;;;;;15.13;2.40;;;;;;;;;;5001536;28;20042;-65
2020/12/24 06:19:52;;;;;;;9.77;2.42;;;;;;;;;;4998489;28;20045;-65
2020/12/24 06:22:18;;;;;;;10.32;2.13;;;;;;;;;;4998685;28;20042;-65
2020/12/24 06:24:51;;;;;;;6.72;2.08;;;;;;;;;;4998676;28;20037;-65
2020/12/24 06:27:37;;;;;;;9.40;2.33;;;;;;;;;;5000899;28;20038;-64
2020/12/24 06:30:10;;;;;;;7.80;2.45;;;;;;;;;;4997635;28;20076;-65
2020/12/24 06:32:39;;;;;;;10.43;2.53;;;;;;;;;;4998077;28;20038;-64
2020/12/24 06:35:04;;;;;;;10.82;2.42;;;;;;;;;;4998937;28;20473;-64
2020/12/24 06:37:38;;;;;;;8.07;2.05;;;;;;;;;;4995730;28;20052;-64
2020/12/24 06:40:04;;;;;;;15.75;2.28;;;;;;;;;;4999068;28;20444;-64
2020/12/24 06:42:36;;;;;;;7.32;1.80;;;;;;;;;;4998814;28;20023;-64
2020/12/24 06:45:02;;;;;;;;;;;;;;;;;;4998788;28;20104;-65
2020/12/24 06:47:27;;;;;;;11.98;2.30;;;;;;;;;;4997287;28;19921;-65
2020/12/24 06:49:52;;;;;;;7.15;1.83;;;;;;;;;;4996851;28;20030;-64
2020/12/24 06:52:27;;;;;;;10.55;2.00;;;;;;;;;;4999062;28;20103;-64
2020/12/24 06:55:16;;;;;;;7.65;1.67;;;;;;;;;;4993692;28;20060;-64
2020/12/24 06:57:42;;;;;;;13.13;3.05;;;;;;;;;;4997733;28;20026;-64
2020/12/24 07:00:20;;;;;;;6.93;2.10;;;;;;;;;;4997304;28;20035;-65
2020/12/24 07:02:47;;;;;;;8.93;1.98;;;;;;;;;;4997995;28;20089;-65
2020/12/24 07:05:40;;;;;;;14.20;2.25;;;;;;;;;;4999614;28;20062;-64
2020/12/24 07:08:07;;;;;;;8.80;2.22;;;;;;;;;;4996243;28;20362;-64
2020/12/24 07:10:46;;;;;;;6.63;1.85;;;;;;;;;;4999334;28;20061;-65
2020/12/24 07:13:41;;;;;;;9.25;1.92;;;;;;;;;;4997784;28;20129;-65
2020/12/24 07:16:08;;;;;;;4.95;1.88;;;;;;;;;;4995550;28;20030;-64
2020/12/24 07:18:40;;;;;;;9.85;2.47;;;;;;;;;;4997962;28;20040;-64
2020/12/24 07:21:08;;;;;;;13.43;2.72;;;;;;;;;;4997410;28;20065;-65
2020/12/24 07:23:35;;;;;;;6.63;1.60;;;;;;;;;;5001551;28;20042;-65
2020/12/24 07:26:02;;;;;;;12.00;2.00;;;;;;;;;;4997900;28;20061;-64
2020/12/24 07:28:30;;;;;;;9.55;1.85;;;;;;;;;;4998689;28;20037;-64
2020/12/24 07:30:56;;;;;;;12.65;2.22;;;;;;;;;;4996628;28;20035;-65
2020/12/24 07:33:22;;;;;;;9.82;2.25;;;;;;;;;;4999855;28;20626;-65
2020/12/24 07:35:47;;;;;;;7.85;2.08;;;;;;;;;;4998090;28;20057;-65
2020/12/24 07:38:13;;;;;;;10.02;2.25;;;;;;;;;;4994259;28;20053;-59
2020/12/24 07:40:40;;;;;;;7.22;1.65;;;;;;;;;;4997269;28;20038;-60
2020/12/24 07:43:12;;;;;;;7.85;1.63;;;;;;;;;;4996904;28;20054;-59
2020/12/24 07:45:38;;;;;;;8.80;1.90;;;;;;;;;;4994069;28;20033;-59
2020/12/24 07:48:10;;;;;;;9.93;2.17;;;;;;;;;;4997337;28;20030;-59
2020/12/24 07:50:35;;;;;;;9.88;1.80;;;;;;;;;;4997780;28;20041;-59
2020/12/24 07:53:01;;;;;;;9.88;2.13;;;;;;;;;;4996549;28;20034;-59
2020/12/24 07:55:27;;;;;;;7.38;2.00;;;;;;;;;;4995767;28;20136;-60
2020/12/24 07:58:05;;;;;;;6.60;1.90;;;;;;;;;;4996429;28;20038;-60
2020/12/24 08:00:30;;;;;;;6.07;1.65;;;;;;;;;;4997651;28;20041;-59
2020/12/24 08:03:01;;;;;;;5.63;2.03;;;;;;;;;;4996611;28;20477;-60
2020/12/24 08:05:26;;;;;;;;;;;;;;;;;;4999357;28;20042;-59
2020/12/24 08:07:52;;;;;;;11.65;1.85;;;;;;;;;;4995910;28;19988;-60
2020/12/24 08:10:17;;;;;;;4.78;1.83;;;;;;;;;;4998103;28;20038;-60
2020/12/24 08:12:43;;;;;;;12.15;2.03;;;;;;;;;;4995564;28;20029;-59
2020/12/24 08:15:14;;;;;;;8.15;1.42;;;;;;;;;;4997900;28;20045;-59
2020/12/24 08:17:54;;;;;;;;;;;;;;;;;;4997275;28;20034;-58
2020/12/24 08:20:21;;;;;;;4.60;1.40;;;;;;;;;;5000181;28;19948;-59
2020/12/24 08:22:56;;;;;;;6.40;2.10;;;;;;;;;;4991158;28;20516;-59
2020/12/24 08:25:22;;;;;;;4.85;1.45;;;;;;;;;;4999052;28;20052;-59
2020/12/24 08:27:48;;;;;;;9.82;1.92;;;;;;;;;;4997142;28;20413;-59
2020/12/24 08:30:15;;;;;;;8.52;2.08;;;;;;;;;;4996236;28;20380;-59
2020/12/24 08:32:41;;;;;;;9.27;1.80;;;;;;;;;;4997546;28;20041;-59
2020/12/24 08:35:08;;;;;;;11.18;1.88;;;;;;;;;;4996333;28;20482;-59
2020/12/24 08:37:33;;;;;;;11.25;2.05;;;;;;;;;;4996287;28;20053;-59
2020/12/24 08:39:59;;;;;;;7.13;2.03;;;;;;;;;;4995400;28;20173;-60
2020/12/24 08:42:29;;;;;;;6.15;1.50;;;;;;;;;;4998893;28;20038;-59
2020/12/24 08:44:56;;;;;;;7.25;1.30;;;;;;;;;;4996504;28;20062;-59
2020/12/24 08:47:22;;;;;;;6.72;1.55;;;;;;;;;;4998754;28;20484;-59
2020/12/24 08:49:47;;;;;;;7.15;1.77;;;;;;;;;;4992355;28;20054;-59
2020/12/24 08:52:17;;;;;;;6.03;1.67;;;;;;;;;;4996490;28;20044;-59
2020/12/24 08:54:59;;;;;;;11.00;2.53;;;;;;;;;;4995331;28;20061;-60
2020/12/24 08:57:25;;;;;;;9.05;2.05;;;;;;;;;;4993082;28;20045;-60
2020/12/24 08:59:58;;;;;;;6.07;1.67;;;;;;;;;;4994044;28;20085;-60
2020/12/24 09:02:34;;;;;;;5.93;2.03;;;;;;;;;;4999254;28;21016;-60
2020/12/24 09:05:01;;;;;;;5.15;2.15;;;;;;;;;;4990754;28;20034;-60
2020/12/24 09:07:30;;;;;;;4.47;1.50;;;;;;;;;;4995459;28;20077;-60
2020/12/24 09:10:10;;;;;;;8.15;2.25;;;;;;;;;;4992698;28;20046;-60
2020/12/24 09:12:40;;;;;;;5.43;2.10;;;;;;;;;;4997252;28;20033;-60
2020/12/24 09:15:09;;;;;;;2.60;1.02;;;;;;;;;;4993544;28;20244;-60
2020/12/24 09:17:35;;;;;;;3.88;1.45;;;;;;;;;;4997405;28;20475;-60
2020/12/24 09:20:02;;;;;;;6.70;1.95;;;;;;;;;;4995938;28;20022;-60
2020/12/24 09:22:28;;;;;;;4.93;1.33;;;;;;;;;;4999284;28;20037;-60
2020/12/24 09:24:53;;;;;;;4.35;1.33;;;;;;;;;;4996020;28;20022;-60
2020/12/24 09:27:18;;;;;;;4.53;1.63;;;;;;;;;;4997905;28;20038;-59
2020/12/24 09:29:44;;;;;;;4.55;1.15;;;;;;;;;;4995468;28;20034;-60
2020/12/24 09:32:11;;;;;;;3.17;1.30;;;;;;;;;;4995772;28;20026;-60
2020/12/24 09:34:37;;;;;;;2.20;0.90;;;;;;;;;;4995862;28;20045;-59
2020/12/24 09:37:02;;;;;;;3.88;1.08;;;;;;;;;;4996970;28;20049;-60
2020/12/24 09:39:27;;;;;;;1.85;0.80;;;;;;;;;;4992976;28;20562;-60
2020/12/24 09:41:53;;;;;;;3.05;0.90;;;;;;;;;;4995078;28;20030;-60
2020/12/24 09:44:18;;;;;;;3.50;0.98;;;;;;;;;;4997491;28;20389;-60
2020/12/24 09:46:49;;;;;;;2.85;1.05;;;;;;;;;;4993805;28;20062;-59
2020/12/24 09:49:15;;;;;;;1.92;0.82;;;;;;;;;;4993250;28;20038;-59
2020/12/24 09:51:41;;;;;;;4.47;1.38;;;;;;;;;;4994564;28;20707;-60
2020/12/24 09:54:07;;;;;;;3.58;1.10;;;;;;;;;;4994518;28;20096;-59
2020/12/24 09:56:33;;;;;;;3.75;1.00;;;;;;;;;;4991014;28;20066;-60
2020/12/24 09:59:00;;;;;;;2.58;0.90;;;;;;;;;;4994530;28;20034;-59
2020/12/24 10:01:25;;;;;;;2.78;1.27;;;;;;;;;;4997689;28;20041;-60
2020/12/24 10:03:50;;;;;;;5.00;1.30;;;;;;;;;;4996922;28;20038;-59
2020/12/24 10:06:16;;;;;;;2.72;0.98;;;;;;;;;;4997658;28;20375;-59
2020/12/24 10:08:41;;;;;;;2.53;0.80;;;;;;;;;;4996123;28;20044;-60
2020/12/24 10:11:12;;;;;;;2.00;1.00;;;;;;;;;;4998251;28;20068;-59
2020/12/24 10:13:37;;;;;;;3.73;1.60;;;;;;;;;;4991003;28;20487;-59
2020/12/24 10:16:03;;;;;;;3.30;0.90;;;;;;;;;;4996297;28;20057;-59
2020/12/24 10:18:29;;;;;;;1.58;0.73;;;;;;;;;;4997226;28;20042;-59
2020/12/24 10:20:54;;;;;;;2.13;0.70;;;;;;;;;;4995568;28;20481;-59
2020/12/24 10:23:19;;;;;;;3.50;1.27;;;;;;;;;;4994714;28;20041;-59
2020/12/24 10:25:45;;;;;;;2.47;1.23;;;;;;;;;;4995610;28;20022;-59
2020/12/24 10:28:10;;;;;;;3.85;1.10;;;;;;;;;;4994441;28;20117;-60
2020/12/24 10:30:35;;;;;;;2.55;0.80;;;;;;;;;;4994948;28;20119;-60
2020/12/24 10:33:01;;;;;;;2.20;0.75;;;;;;;;;;4991372;28;20648;-58
2020/12/24 10:35:26;;;;;;;1.15;0.65;;;;;;;;;;4992845;28;20232;-60
2020/12/24 10:37:51;;;;;;;2.70;1.10;;;;;;;;;;4992024;28;20034;-59
2020/12/24 10:40:17;;;;;;;1.77;0.65;;;;;;;;;;4993198;28;20495;-60
2020/12/24 10:42:46;;;;;;;1.58;0.73;;;;;;;;;;4993981;28;20037;-59
2020/12/24 10:45:12;;;;;;;3.33;0.75;;;;;;;;;;4992816;28;20045;-59
2020/12/24 10:47:38;;;;;;;3.17;0.65;;;;;;;;;;4993170;28;20675;-59
2020/12/24 10:50:04;;;;;;;1.15;0.75;;;;;;;;;;4993926;28;20454;-59
2020/12/24 10:52:29;;;;;;;2.70;0.80;;;;;;;;;;4995494;28;20048;-58
2020/12/24 10:54:54;;;;;;;2.65;1.10;;;;;;;;;;4994399;28;20133;-59
2020/12/24 10:57:20;;;;;;;2.15;0.80;;;;;;;;;;4997186;28;20037;-59
2020/12/24 10:59:45;;;;;;;1.70;0.73;;;;;;;;;;4995437;28;20417;-58
2020/12/24 11:02:10;;;;;;;1.75;0.80;;;;;;;;;;5000765;28;20413;-60
2020/12/24 11:04:36;;;;;;;1.42;0.60;;;;;;;;;;4998959;28;20638;-60
2020/12/24 11:07:01;;;;;;;2.78;0.93;;;;;;;;;;4998044;28;20038;-59
2020/12/24 11:09:26;;;;;;;1.92;1.05;;;;;;;;;;4997778;28;20069;-59
2020/12/24 11:11:52;;;;;;;2.22;0.80;;;;;;;;;;4998337;28;20603;-58
2020/12/24 11:14:17;;;;;;;1.55;0.68;;;;;;;;;;4997879;28;20034;-59
2020/12/24 11:16:42;;;;;;;2.30;1.20;;;;;;;;;;4994902;28;20065;-59
2020/12/24 11:19:08;;;;;;;1.02;0.50;;;;;;;;;;4995724;28;20631;-59
2020/12/24 11:21:35;;;;;;;3.35;0.70;;;;;;;;;;5013262;28;20026;-59
2020/12/24 11:24:05;;;;;;;2.03;0.95;;;;;;;;;;4998678;28;20038;-59
2020/12/24 11:26:32;;;;;;;1.38;0.68;;;;;;;;;;4998626;28;20686;-59
2020/12/24 11:28:58;;;;;;;1.75;0.60;;;;;;;;;;5000299;28;20034;-59
2020/12/24 11:31:28;;;;;;;2.05;0.90;;;;;;;;;;4999918;28;20076;-61
2020/12/24 11:33:54;;;;;;;1.85;0.75;;;;;;;;;;4997390;28;20125;-61
2020/12/24 11:36:20;;;;;;;1.17;0.70;;;;;;;;;;4996763;28;20456;-62
2020/12/24 11:38:46;;;;;;;1.88;0.70;;;;;;;;;;4996906;28;20042;-61
2020/12/24 11:41:14;;;;;;;2.03;1.00;;;;;;;;;;4998193;28;20027;-60
2020/12/24 11:43:39;;;;;;;1.30;0.60;;;;;;;;;;4997151;28;20072;-60
2020/12/24 11:46:07;;;;;;;1.45;0.73;;;;;;;;;;4997541;28;20489;-60
2020/12/24 11:48:32;;;;;;;1.27;0.60;;;;;;;;;;4998386;28;20041;-60
2020/12/24 11:50:57;;;;;;;1.90;0.65;;;;;;;;;;4997629;28;20035;-60
2020/12/24 11:53:23;;;;;;;2.10;0.77;;;;;;;;;;4994684;28;20041;-60
2020/12/24 11:55:48;;;;;;;1.35;0.70;;;;;;;;;;4997689;28;20091;-61
2020/12/24 11:58:13;;;;;;;5.22;0.80;;;;;;;;;;4999464;28;20034;-59
2020/12/24 12:00:39;;;;;;;1.63;0.70;;;;;;;;;;4996628;28;20049;-60
2020/12/24 12:03:04;;;;;;;1.10;0.68;;;;;;;;;;4994590;28;20058;-62
2020/12/24 12:05:29;;;;;;;1.60;0.82;;;;;;;;;;4990018;28;20033;-60
2020/12/24 12:07:55;;;;;;;1.45;0.60;;;;;;;;;;4996790;28;20038;-60
2020/12/24 12:10:20;;;;;;;1.05;0.70;;;;;;;;;;4997837;28;20042;-60
2020/12/24 12:12:46;;;;;;;1.35;0.80;;;;;;;;;;4992215;28;20121;-60
2020/12/24 12:15:11;;;;;;;2.10;0.65;;;;;;;;;;4993311;28;20760;-60
2020/12/24 12:17:36;;;;;;;1.20;0.70;;;;;;;;;;4994229;28;20033;-60
2020/12/24 12:20:02;;;;;;;2.03;0.77;;;;;;;;;;4992836;28;20026;-60
2020/12/24 12:22:27;;;;;;;1.05;0.60;;;;;;;;;;4991076;28;20037;-59
2020/12/24 12:24:53;;;;;;;1.23;0.60;;;;;;;;;;4992187;28;20045;-59
2020/12/24 12:27:19;;;;;;;2.25;0.80;;;;;;;;;;4989530;28;20041;-60
2020/12/24 12:29:44;;;;;;;2.13;0.90;;;;;;;;;;4993501;28;20445;-59
2020/12/24 12:32:10;;;;;;;2.60;1.40;;;;;;;;;;4994655;28;20040;-60
2020/12/24 12:34:35;;;;;;;1.65;0.90;;;;;;;;;;4994987;28;20649;-60
2020/12/24 12:37:00;;;;;;;1.92;0.90;;;;;;;;;;4993791;28;20030;-59
2020/12/24 12:39:26;;;;;;;1.77;0.88;;;;;;;;;;4997542;28;20156;-60
2020/12/24 12:41:51;;;;;;;4.55;2.40;;;;;;;;;;4994660;28;20084;-60
2020/12/24 12:44:16;;;;;;;1.08;0.60;;;;;;;;;;5001376;28;20058;-60
2020/12/24 12:46:42;;;;;;;1.38;0.68;;;;;;;;;;4995051;28;20029;-60
2020/12/24 12:49:08;;;;;;;2.47;0.70;;;;;;;;;;4997011;28;20034;-60
2020/12/24 12:51:34;;;;;;;1.70;0.77;;;;;;;;;;4991497;28;20036;-60
2020/12/24 12:53:59;;;;;;;1.50;0.70;;;;;;;;;;4995721;28;20354;-59
2020/12/24 12:56:24;;;;;;;2.47;0.80;;;;;;;;;;4995876;28;20045;-59
2020/12/24 12:58:50;;;;;;;1.00;0.55;;;;;;;;;;4994258;28;20480;-60
2020/12/24 13:01:17;;;;;;;0.82;0.50;;;;;;;;;;4995396;28;20030;-61
2020/12/24 13:03:43;;;;;;;1.20;0.60;;;;;;;;;;5010420;28;20029;-66
2020/12/24 13:06:19;;;;;;;1.05;0.65;;;;;;;;;;4992992;28;20488;-65
2020/12/24 13:08:48;;;;;;;0.60;0.50;;;;;;;;;;4995725;28;20041;-67
2020/12/24 13:11:14;;;;;;;1.02;0.60;;;;;;;;;;4993650;28;20026;-67
2020/12/24 13:13:40;;;;;;;3.30;1.50;;;;;;;;;;4995672;28;20034;-68
2020/12/24 13:16:06;;;;;;;1.73;0.80;;;;;;;;;;4990660;28;20036;-65
2020/12/24 13:18:31;;;;;;;1.00;0.60;;;;;;;;;;4994777;28;20472;-66
2020/12/24 13:20:59;;;;;;;3.08;1.52;;;;;;;;;;4986620;28;20218;-66
2020/12/24 13:23:25;;;;;;;3.88;1.88;;;;;;;;;;5010483;28;20037;-65
2020/12/24 13:25:50;;;;;;;2.47;0.95;;;;;;;;;;4994099;28;20374;-65
2020/12/24 13:28:15;;;;;;;0.75;0.50;;;;;;;;;;4993150;28;20030;-66
2020/12/24 13:30:41;;;;;;;0.80;0.57;;;;;;;;;;4992938;28;20049;-67
2020/12/24 13:33:06;;;;;;;0.80;0.50;;;;;;;;;;4990986;28;20026;-66
2020/12/24 13:35:31;;;;;;;0.52;0.40;;;;;;;;;;4995000;28;20026;-66
2020/12/24 13:37:57;;;;;;;0.82;0.52;;;;;;;;;;4993617;28;20065;-67
2020/12/24 13:40:22;;;;;;;1.52;0.70;;;;;;;;;;4994227;28;21150;-68
2020/12/24 13:42:47;;;;;;;1.63;0.85;;;;;;;;;;4994994;28;20038;-66
2020/12/24 13:45:14;;;;;;;1.33;0.77;;;;;;;;;;4993908;28;20394;-66
2020/12/24 13:47:39;;;;;;;0.95;0.57;;;;;;;;;;4994390;28;20480;-68
2020/12/24 13:50:05;;;;;;;0.90;0.50;;;;;;;;;;4993805;28;20110;-68
2020/12/24 13:52:30;;;;;;;0.70;0.50;;;;;;;;;;4994767;28;20034;-67
2020/12/24 13:54:56;;;;;;;0.57;0.43;;;;;;;;;;4993311;28;20576;-66
2020/12/24 13:57:21;;;;;;;0.55;0.40;;;;;;;;;;4997490;28;20061;-66
2020/12/24 13:59:46;;;;;;;1.10;0.60;;;;;;;;;;4995809;28;20092;-65
2020/12/24 14:02:12;;;;;;;2.17;0.90;;;;;;;;;;4996447;28;20035;-66
2020/12/24 14:04:37;;;;;;;0.77;0.50;;;;;;;;;;4990063;28;20042;-65
2020/12/24 14:07:02;;;;;;;1.00;0.60;;;;;;;;;;4994643;28;20034;-65
2020/12/24 14:09:28;;;;;;;2.38;0.75;;;;;;;;;;4996617;28;20052;-65
2020/12/24 14:11:53;;;;;;;1.85;0.90;;;;;;;;;;4992983;28;20045;-66
2020/12/24 14:14:19;;;;;;;1.55;0.90;;;;;;;;;;4993816;28;20038;-65
2020/12/24 14:16:44;;;;;;;2.42;1.20;;;;;;;;;;4993146;28;20034;-66
2020/12/24 14:19:09;;;;;;;3.15;1.52;;;;;;;;;;4993108;28;20031;-66
2020/12/24 14:21:40;;;;;;;2.05;1.10;;;;;;;;;;4994389;28;20042;-66
2020/12/24 14:24:06;;;;;;;;;;;;;;;;;;4993080;28;20470;-66
2020/12/24 14:26:31;;;;;;;2.70;1.38;;;;;;;;;;4993887;28;19914;-66
2020/12/24 14:28:57;;;;;;;3.47;1.70;;;;;;;;;;4995739;28;20123;-66
2020/12/24 14:31:23;;;;;;;2.15;1.13;;;;;;;;;;4996286;28;20093;-65
2020/12/24 14:33:48;;;;;;;1.83;0.82;;;;;;;;;;4994988;28;20064;-66
2020/12/24 14:36:16;;;;;;;1.50;0.80;;;;;;;;;;4999105;28;20030;-65
2020/12/24 14:38:42;;;;;;;1.67;0.75;;;;;;;;;;4997958;28;20041;-65
2020/12/24 14:41:08;;;;;;;2.10;0.70;;;;;;;;;;4999188;28;20031;-65